Time;durP1;ratioP1;P1;durP2;ratioP2;P2;SDS_P1;SDS_P2;PMS_P1;PMS_P2;Temp;Humidity;BMP_temperature;BMP_pressure;BME280_temperature;BME280_humidity;BME280_pressure;Samples;Min_cycle;Max_cycle;Signal;HPM_P1;HPM_P2
2021/12/02 00:00:59;;;;;;;4.23;2.93;;;8.60;99.90;;;;;;4978289;28;21150;-82
2021/12/02 00:03:26;;;;;;;3.90;2.93;;;8.60;99.90;;;;;;4959033;28;20637;-83
2021/12/02 00:05:52;;;;;;;3.30;2.25;;;8.60;99.90;;;;;;4977290;28;20183;-82
2021/12/02 00:08:18;;;;;;;4.17;2.77;;;8.70;99.90;;;;;;4975854;28;20168;-83
2021/12/02 00:10:44;;;;;;;5.50;2.83;;;8.70;99.90;;;;;;4975427;28;20663;-82
2021/12/02 00:13:11;;;;;;;4.13;2.30;;;8.70;99.90;;;;;;4982262;28;20296;-82
2021/12/02 00:15:58;;;;;;;6.05;2.63;;;8.70;99.90;;;;;;4985930;28;20183;-83
2021/12/02 00:21:07;;;;;;;4.53;3.20;;;8.70;99.90;;;;;;4992597;28;20172;-83
2021/12/02 00:23:43;;;;;;;6.85;3.20;;;8.70;99.90;;;;;;4996541;28;20195;-83
2021/12/02 00:26:12;;;;;;;5.72;3.75;;;8.70;99.90;;;;;;4978597;28;20233;-83
2021/12/02 00:28:39;;;;;;;7.70;3.63;;;8.70;99.90;;;;;;4960832;28;20523;-82
2021/12/02 00:31:09;;;;;;;4.93;3.58;;;8.70;99.90;;;;;;4998511;28;20178;-83
2021/12/02 00:33:34;;;;;;;8.70;3.78;;;8.70;99.90;;;;;;5006904;28;20199;-83
2021/12/02 00:36:01;;;;;;;5.03;3.30;;;8.70;99.90;;;;;;4992230;28;20266;-82
2021/12/02 00:38:27;;;;;;;6.20;4.38;;;8.70;99.90;;;;;;4996251;28;20686;-82
2021/12/02 00:40:53;;;;;;;6.25;4.03;;;8.70;99.90;;;;;;4979223;28;20182;-83
2021/12/02 00:43:19;;;;;;;6.93;3.50;;;8.70;99.90;;;;;;4998072;28;20258;-82
2021/12/02 00:45:46;;;;;;;4.20;3.57;;;8.70;99.90;;;;;;4997796;28;20543;-82
2021/12/02 00:48:15;;;;;;;5.75;3.92;;;8.70;99.90;;;;;;4963949;28;21170;-82
2021/12/02 00:50:45;;;;;;;6.82;4.30;;;8.70;99.90;;;;;;4997337;28;20278;-83
2021/12/02 00:53:11;;;;;;;5.95;4.60;;;8.70;99.90;;;;;;4997812;28;20203;-83
2021/12/02 00:55:39;;;;;;;8.05;4.95;;;8.70;99.90;;;;;;4980863;28;20249;-84
2021/12/02 00:58:06;;;;;;;5.60;3.90;;;8.70;99.90;;;;;;4979758;28;20186;-83
2021/12/02 01:00:32;;;;;;;5.95;4.50;;;8.80;99.90;;;;;;4997339;28;20190;-83
2021/12/02 01:02:59;;;;;;;7.10;4.50;;;8.80;99.90;;;;;;5008338;28;20194;-83
2021/12/02 01:05:27;;;;;;;6.32;4.55;;;8.80;99.90;;;;;;5007673;23;20574;-79
2021/12/02 01:07:53;;;;;;;5.72;4.50;;;8.80;99.90;;;;;;4989408;28;20178;-78
2021/12/02 01:10:21;;;;;;;5.97;5.10;;;8.80;99.90;;;;;;4981314;28;20208;-78
2021/12/02 01:12:49;;;;;;;6.03;4.40;;;8.70;99.90;;;;;;4984998;28;20215;-78
2021/12/02 01:15:15;;;;;;;5.40;4.90;;;8.70;99.90;;;;;;4977652;28;20678;-78
2021/12/02 01:17:41;;;;;;;6.35;4.50;;;8.70;99.90;;;;;;4993853;28;20285;-78
2021/12/02 01:20:08;;;;;;;7.25;5.40;;;8.70;99.90;;;;;;4993878;28;20586;-78
2021/12/02 01:22:37;;;;;;;7.22;5.60;;;8.70;99.90;;;;;;4976924;28;20167;-78
2021/12/02 01:25:07;;;;;;;6.25;4.82;;;8.70;99.90;;;;;;4994954;28;20199;-78
2021/12/02 01:27:36;;;;;;;8.57;5.18;;;8.70;99.90;;;;;;4994124;28;20179;-79
2021/12/02 01:30:04;;;;;;;5.38;4.88;;;8.70;99.90;;;;;;4994679;28;20257;-78
2021/12/02 01:32:34;;;;;;;6.95;5.53;;;8.70;99.90;;;;;;4976839;28;20206;-78
2021/12/02 01:35:04;;;;;;;6.30;4.55;;;8.70;99.90;;;;;;4996082;28;20194;-78
2021/12/02 01:37:30;;;;;;;6.32;5.00;;;8.70;99.90;;;;;;4976734;28;20644;-78
2021/12/02 01:39:57;;;;;;;6.43;5.35;;;8.70;99.90;;;;;;4994462;28;20163;-78
2021/12/02 01:42:27;;;;;;;6.45;5.13;;;8.70;99.90;;;;;;4977184;28;20181;-78
2021/12/02 01:44:57;;;;;;;6.38;5.25;;;8.70;99.90;;;;;;4994260;28;20253;-78
2021/12/02 01:47:26;;;;;;;5.50;4.50;;;8.70;99.90;;;;;;4993980;28;20262;-78
2021/12/02 01:49:58;;;;;;;7.15;4.30;;;8.70;99.90;;;;;;4976955;28;20171;-78
2021/12/02 01:52:31;;;;;;;5.47;4.97;;;8.60;99.90;;;;;;4976822;28;20262;-78
2021/12/02 01:55:10;;;;;;;6.78;4.38;;;8.60;99.90;;;;;;4976158;28;20187;-78
2021/12/02 01:57:40;;;;;;;4.38;4.03;;;8.60;99.90;;;;;;4976376;28;20209;-79
2021/12/02 02:00:18;;;;;;;6.72;4.65;;;8.60;99.90;;;;;;4993890;28;20206;-79
2021/12/02 02:02:43;;;;;;;4.63;3.78;;;8.60;99.90;;;;;;4976502;28;20190;-79
2021/12/02 02:05:12;;;;;;;3.63;3.00;;;8.60;99.90;;;;;;4993940;28;20191;-79
2021/12/02 02:08:05;;;;;;;8.32;4.43;;;8.60;99.90;;;;;;4976126;28;20532;-79
2021/12/02 02:10:37;;;;;;;7.95;4.13;;;8.60;99.90;;;;;;4984737;28;20206;-79
2021/12/02 02:13:06;;;;;;;5.78;4.25;;;8.70;99.90;;;;;;4996778;28;20171;-79
2021/12/02 02:15:33;;;;;;;6.03;4.45;;;8.70;99.90;;;;;;4993930;28;20191;-79
2021/12/02 02:18:20;;;;;;;4.35;3.95;;;8.70;99.90;;;;;;4993292;28;20166;-78
2021/12/02 02:21:02;;;;;;;6.20;4.10;;;8.70;99.90;;;;;;4976300;28;20557;-78
2021/12/02 02:23:31;;;;;;;7.47;4.40;;;8.70;99.90;;;;;;4975762;28;20258;-78
2021/12/02 02:25:58;;;;;;;5.65;4.35;;;8.70;99.90;;;;;;4992591;28;20194;-78
2021/12/02 02:28:23;;;;;;;5.50;5.00;;;8.70;99.90;;;;;;4993453;28;20183;-78
2021/12/02 02:30:49;;;;;;;6.73;4.63;;;8.70;99.90;;;;;;4992969;28;20217;-78
2021/12/02 02:33:18;;;;;;;6.28;4.72;;;8.70;99.90;;;;;;4993303;28;20575;-78
2021/12/02 02:35:45;;;;;;;4.30;3.90;;;8.70;99.90;;;;;;4992463;28;20191;-78
2021/12/02 02:38:14;;;;;;;4.75;4.15;;;8.70;99.90;;;;;;4991796;28;20261;-78
2021/12/02 02:40:42;;;;;;;5.20;3.88;;;8.70;99.90;;;;;;4959767;28;20201;-78
2021/12/02 02:43:09;;;;;;;4.55;4.15;;;8.70;99.90;;;;;;4992898;28;20182;-78
2021/12/02 02:45:37;;;;;;;5.63;3.85;;;8.70;99.90;;;;;;4992350;28;20202;-78
2021/12/02 02:48:04;;;;;;;4.35;3.95;;;8.80;99.90;;;;;;4976347;28;20371;-78
2021/12/02 02:50:30;;;;;;;5.75;4.63;;;8.70;99.90;;;;;;4995653;28;20581;-78
2021/12/02 02:53:04;;;;;;;7.82;4.45;;;8.70;99.90;;;;;;4993267;28;20171;-78
2021/12/02 02:55:32;;;;;;;4.80;4.18;;;8.70;99.90;;;;;;4993045;28;20194;-78
2021/12/02 03:00:32;;;;;;;7.05;4.70;;;8.70;99.90;;;;;;4992655;28;20175;-78
2021/12/02 03:03:16;;;;;;;5.10;3.80;;;8.60;99.90;;;;;;4975671;28;20171;-78
2021/12/02 03:08:16;;;;;;;5.65;4.28;;;8.60;99.90;;;;;;5007708;28;20178;-78
2021/12/02 03:10:47;;;;;;;5.00;3.33;;;8.60;99.90;;;;;;4993033;28;20181;-78
2021/12/02 03:13:20;;;;;;;5.63;2.92;;;8.60;99.90;;;;;;4993923;28;20578;-78
2021/12/02 03:18:31;;;;;;;4.68;3.10;;;8.50;99.90;;;;;;4994241;28;20241;-78
2021/12/02 03:20:57;;;;;;;4.50;3.03;;;8.40;99.90;;;;;;4995596;28;20167;-78
2021/12/02 03:23:23;;;;;;;6.00;2.77;;;8.40;99.90;;;;;;5011087;28;20163;-78
2021/12/02 03:25:49;;;;;;;6.68;3.45;;;8.30;99.90;;;;;;5006515;28;20198;-78
2021/12/02 03:28:15;;;;;;;6.18;3.70;;;8.30;99.90;;;;;;4994993;28;20179;-78
2021/12/02 03:30:41;;;;;;;4.03;3.60;;;8.30;99.90;;;;;;5001050;28;20186;-78
2021/12/02 03:33:07;;;;;;;3.83;3.17;;;8.20;99.90;;;;;;5005839;28;20635;-78
2021/12/02 03:35:33;;;;;;;5.13;2.90;;;8.20;99.90;;;;;;5012231;28;20194;-78
2021/12/02 03:37:58;;;;;;;4.10;3.67;;;8.10;99.90;;;;;;5010279;28;20264;-78
2021/12/02 03:40:24;;;;;;;6.00;2.87;;;8.10;99.90;;;;;;5011073;28;20569;-78
2021/12/02 03:42:52;;;;;;;4.00;3.00;;;8.00;99.90;;;;;;4993887;28;20174;-78
2021/12/02 03:45:21;;;;;;;7.88;3.90;;;8.00;99.90;;;;;;5012027;28;20182;-78
2021/12/02 03:47:47;;;;;;;4.82;3.13;;;8.00;99.90;;;;;;5010312;28;20784;-78
2021/12/02 03:50:13;;;;;;;5.77;3.20;;;8.00;99.90;;;;;;5011223;28;20172;-78
2021/12/02 03:52:39;;;;;;;3.83;2.78;;;7.90;99.90;;;;;;5011747;28;20530;-78
2021/12/02 03:55:05;;;;;;;4.00;3.07;;;7.90;99.90;;;;;;5012007;28;20194;-79
2021/12/02 03:57:32;;;;;;;3.70;2.70;;;7.90;99.90;;;;;;5011393;28;20632;-78
2021/12/02 04:00:01;;;;;;;4.65;3.20;;;7.90;99.90;;;;;;5011754;28;20170;-78
2021/12/02 04:02:27;;;;;;;7.10;3.55;;;7.90;99.90;;;;;;5011012;28;20166;-78
2021/12/02 04:04:53;;;;;;;6.47;2.65;;;7.90;99.90;;;;;;5015163;28;20201;-78
2021/12/02 04:07:20;;;;;;;5.33;3.50;;;7.90;99.90;;;;;;5010176;28;20248;-78
2021/12/02 04:09:47;;;;;;;4.22;2.92;;;7.90;99.90;;;;;;4993974;28;20178;-78
2021/12/02 04:15:50;;;;;;;5.68;3.70;;;7.90;99.90;;;;;;4969670;28;20300;-78
2021/12/02 04:18:07;;;;;;;4.32;2.58;;;7.90;99.90;;;;;;5009666;28;20693;-78
2021/12/02 04:20:34;;;;;;;4.22;2.45;;;7.90;99.90;;;;;;5015311;28;20573;-78
2021/12/02 04:22:59;;;;;;;3.63;2.83;;;7.90;99.90;;;;;;5015253;28;20217;-78
2021/12/02 04:25:26;;;;;;;7.43;2.53;;;7.80;99.90;;;;;;5013737;28;20228;-77
2021/12/02 04:27:53;;;;;;;3.58;1.95;;;7.80;99.90;;;;;;5014839;28;20573;-78
2021/12/02 04:30:22;;;;;;;2.92;1.80;;;7.80;99.90;;;;;;4997563;28;20171;-78
2021/12/02 04:32:48;;;;;;;3.25;2.08;;;7.80;99.90;;;;;;5014942;28;20159;-78
2021/12/02 04:35:14;;;;;;;2.50;1.47;;;7.80;99.90;;;;;;5015294;28;20190;-79
2021/12/02 04:37:42;;;;;;;3.13;1.20;;;7.70;99.90;;;;;;5013399;28;20570;-77
2021/12/02 04:40:11;;;;;;;4.75;1.70;;;7.70;99.90;;;;;;5015508;28;20170;-78
2021/12/02 04:42:37;;;;;;;1.70;0.90;;;7.70;99.90;;;;;;4997307;28;20170;-77
2021/12/02 04:45:03;;;;;;;1.50;1.10;;;7.70;99.90;;;;;;5013579;28;20199;-77
2021/12/02 04:47:29;;;;;;;1.58;1.00;;;7.70;99.90;;;;;;4996631;28;20573;-77
2021/12/02 04:49:55;;;;;;;3.30;1.27;;;7.70;99.90;;;;;;5014944;28;20167;-77
2021/12/02 04:52:21;;;;;;;1.60;1.30;;;7.70;99.90;;;;;;5014660;28;20166;-77
2021/12/02 04:54:47;;;;;;;2.15;1.30;;;7.70;99.90;;;;;;5014558;28;20256;-77
2021/12/02 04:57:13;;;;;;;3.30;1.60;;;7.70;99.90;;;;;;4996656;28;20616;-77
2021/12/02 04:59:38;;;;;;;4.43;1.43;;;7.70;99.90;;;;;;5013316;28;20246;-77
2021/12/02 05:02:04;;;;;;;7.93;2.13;;;7.70;99.90;;;;;;5014510;28;20163;-77
2021/12/02 05:04:30;;;;;;;3.43;1.63;;;7.70;99.90;;;;;;4998825;28;20256;-77
2021/12/02 05:06:55;;;;;;;4.20;2.37;;;7.70;99.90;;;;;;5014571;28;20174;-78
2021/12/02 05:09:21;;;;;;;4.97;2.20;;;7.70;99.90;;;;;;5012576;28;20267;-78
2021/12/02 05:11:47;;;;;;;2.33;2.00;;;7.70;99.90;;;;;;5014658;28;20178;-78
2021/12/02 05:14:13;;;;;;;4.43;3.00;;;7.70;99.90;;;;;;5014152;28;20637;-78
2021/12/02 05:16:39;;;;;;;3.63;2.00;;;7.70;99.90;;;;;;5030051;28;20206;-78
2021/12/02 05:19:05;;;;;;;3.78;2.40;;;7.80;99.90;;;;;;5014497;28;20170;-78
2021/12/02 05:21:31;;;;;;;2.10;1.90;;;7.80;99.90;;;;;;5013266;28;20228;-78
2021/12/02 05:23:57;;;;;;;4.03;1.80;;;7.80;99.90;;;;;;5013810;28;20569;-78
2021/12/02 05:26:24;;;;;;;4.30;2.00;;;7.80;99.90;;;;;;5014484;28;20171;-77
2021/12/02 05:28:52;;;;;;;4.10;2.80;;;7.80;99.90;;;;;;5011394;28;20175;-77
2021/12/02 05:31:19;;;;;;;3.03;1.30;;;7.80;99.90;;;;;;5012925;28;20534;-77
2021/12/02 05:33:44;;;;;;;3.10;1.30;;;7.80;99.90;;;;;;5013092;28;20187;-77
2021/12/02 05:36:10;;;;;;;2.80;1.17;;;7.80;99.90;;;;;;5012986;28;20198;-77
2021/12/02 05:38:37;;;;;;;3.13;1.20;;;7.80;99.90;;;;;;4996227;28;20581;-77
2021/12/02 05:41:04;;;;;;;2.85;1.10;;;7.80;99.90;;;;;;5012500;28;20181;-77
2021/12/02 05:43:30;;;;;;;3.47;1.33;;;7.80;99.90;;;;;;5013719;28;20249;-77
2021/12/02 05:45:56;;;;;;;3.30;1.50;;;7.80;99.90;;;;;;5013600;28;20194;-77
2021/12/02 05:48:22;;;;;;;4.60;1.50;;;7.80;99.90;;;;;;5012122;28;20178;-77
2021/12/02 05:50:47;;;;;;;5.83;1.30;;;7.80;99.90;;;;;;4995872;28;20574;-77
2021/12/02 05:53:13;;;;;;;3.30;1.13;;;7.80;99.90;;;;;;5013354;28;20178;-77
2021/12/02 05:55:39;;;;;;;3.00;1.30;;;7.80;99.90;;;;;;5016477;28;20202;-77
2021/12/02 05:58:07;;;;;;;3.50;1.50;;;7.70;99.90;;;;;;5011655;28;20568;-77
2021/12/02 06:00:34;;;;;;;4.07;1.90;;;7.80;99.90;;;;;;5012339;28;20173;-77
2021/12/02 06:03:00;;;;;;;10.45;1.75;;;7.80;99.90;;;;;;5011928;28;20178;-77
2021/12/02 06:05:27;;;;;;;4.38;1.42;;;7.80;99.90;;;;;;5013372;28;20206;-78
2021/12/02 06:07:56;;;;;;;2.67;1.45;;;7.80;99.90;;;;;;4995249;28;20171;-78
2021/12/02 06:10:22;;;;;;;5.28;1.33;;;7.80;99.90;;;;;;5013236;28;20596;-78
2021/12/02 06:12:49;;;;;;;4.95;1.90;;;7.70;99.90;;;;;;5011813;28;20217;-78
2021/12/02 06:15:15;;;;;;;3.80;1.52;;;7.70;99.90;;;;;;4979569;28;20198;-78
2021/12/02 06:17:42;;;;;;;1.83;1.10;;;7.70;99.90;;;;;;5012661;28;20202;-78
2021/12/02 06:20:10;;;;;;;2.92;1.00;;;7.70;99.90;;;;;;5013107;28;20568;-78
2021/12/02 06:22:36;;;;;;;7.70;1.42;;;7.70;99.90;;;;;;4995294;28;20513;-78
2021/12/02 06:27:50;;;;;;;3.28;1.13;;;7.70;99.90;;;;;;4994965;28;20268;-78
2021/12/02 06:30:18;;;;;;;2.55;1.30;;;7.70;99.90;;;;;;4995287;28;20231;-78
2021/12/02 06:32:44;;;;;;;1.70;1.20;;;7.60;99.90;;;;;;5015962;28;20167;-78
2021/12/02 06:35:10;;;;;;;2.15;1.50;;;7.60;99.90;;;;;;4995040;28;20686;-78
2021/12/02 06:37:37;;;;;;;3.30;1.73;;;7.60;99.90;;;;;;5010861;28;20202;-78
2021/12/02 06:40:04;;;;;;;2.58;1.80;;;7.60;99.90;;;;;;4978493;28;20265;-78
2021/12/02 06:42:29;;;;;;;4.85;1.70;;;7.50;99.90;;;;;;4979061;28;20667;-79
2021/12/02 06:44:57;;;;;;;2.90;1.73;;;7.50;99.90;;;;;;5012652;28;20182;-79
2021/12/02 06:47:29;;;;;;;3.28;1.70;;;7.50;99.90;;;;;;5000946;28;20189;-79
2021/12/02 06:49:56;;;;;;;4.13;1.90;;;7.50;99.90;;;;;;5010817;28;20180;-77
2021/12/02 06:52:23;;;;;;;4.57;2.00;;;7.50;99.90;;;;;;4994925;28;20191;-78
2021/12/02 06:54:49;;;;;;;3.50;2.03;;;7.40;99.90;;;;;;4979165;28;20202;-78
2021/12/02 06:57:17;;;;;;;4.15;2.00;;;7.50;99.90;;;;;;5011130;28;20204;-78
2021/12/02 06:59:43;;;;;;;3.40;2.30;;;7.50;99.90;;;;;;4994870;28;20252;-78
2021/12/02 07:02:09;;;;;;;4.10;2.83;;;7.40;99.90;;;;;;5012018;28;20197;-77
2021/12/02 07:04:35;;;;;;;4.73;2.63;;;7.50;99.90;;;;;;4964315;28;20198;-77
2021/12/02 07:07:00;;;;;;;4.27;3.67;;;7.50;99.90;;;;;;5020890;23;20664;-77
2021/12/02 07:09:26;;;;;;;5.33;3.47;;;7.50;99.90;;;;;;4961272;28;20263;-77
2021/12/02 07:11:52;;;;;;;8.40;3.40;;;7.40;99.90;;;;;;4963653;28;20582;-77
2021/12/02 07:14:20;;;;;;;6.03;3.70;;;7.50;99.90;;;;;;4966643;28;20179;-78
2021/12/02 07:16:46;;;;;;;4.20;3.03;;;7.40;99.90;;;;;;4965269;28;20211;-77
2021/12/02 07:19:12;;;;;;;6.38;3.65;;;7.40;99.90;;;;;;4964745;28;20187;-77
2021/12/02 07:21:40;;;;;;;8.13;3.58;;;7.40;99.90;;;;;;4960155;28;20734;-78
2021/12/02 07:24:13;;;;;;;6.35;3.80;;;7.50;99.90;;;;;;4963218;28;20179;-77
2021/12/02 07:26:41;;;;;;;3.90;2.60;;;7.50;99.90;;;;;;4967681;28;20179;-77
2021/12/02 07:29:11;;;;;;;3.25;2.47;;;7.50;99.90;;;;;;4957969;28;20172;-77
2021/12/02 07:31:40;;;;;;;4.55;2.92;;;7.50;99.90;;;;;;4964941;28;20176;-77
2021/12/02 07:34:06;;;;;;;8.05;3.65;;;7.50;99.90;;;;;;4971842;28;20218;-77
2021/12/02 07:36:33;;;;;;;6.22;2.95;;;7.50;99.90;;;;;;4987991;28;20195;-77
2021/12/02 07:39:07;;;;;;;6.43;3.22;;;7.50;99.90;;;;;;4955183;28;20263;-77
2021/12/02 07:41:34;;;;;;;8.20;3.60;;;7.50;99.90;;;;;;4972936;28;20163;-77
2021/12/02 07:44:00;;;;;;;9.57;3.55;;;7.40;99.90;;;;;;4972797;28;20168;-76
2021/12/02 07:46:26;;;;;;;4.53;2.45;;;7.40;99.90;;;;;;4972490;28;20583;-77
2021/12/02 07:48:54;;;;;;;6.10;3.83;;;7.40;99.90;;;;;;4971795;28;20179;-77
2021/12/02 07:51:22;;;;;;;4.43;2.65;;;7.40;99.90;;;;;;4970898;28;20179;-78
2021/12/02 07:53:49;;;;;;;2.50;1.90;;;7.40;99.90;;;;;;4976245;28;20202;-79
2021/12/02 07:56:21;;;;;;;1.98;1.38;;;7.30;99.90;;;;;;4970551;28;20199;-78
2021/12/02 07:58:47;;;;;;;3.85;1.50;;;7.30;99.90;;;;;;4952939;29;20175;-78
2021/12/02 08:01:14;;;;;;;4.30;1.50;;;7.30;99.90;;;;;;4953189;29;20177;-78
2021/12/02 08:03:44;;;;;;;3.50;1.42;;;7.30;99.90;;;;;;4951453;29;20262;-78
2021/12/02 08:06:11;;;;;;;1.65;0.90;;;7.30;99.90;;;;;;4951958;28;20176;-78
2021/12/02 08:08:38;;;;;;;2.25;1.30;;;7.30;99.90;;;;;;4952440;28;20214;-78
2021/12/02 08:11:06;;;;;;;3.17;1.00;;;7.30;99.90;;;;;;4967536;28;20270;-78
2021/12/02 08:13:32;;;;;;;4.40;1.50;;;7.30;99.90;;;;;;4952648;29;20176;-78
2021/12/02 08:15:58;;;;;;;2.85;1.80;;;7.30;99.90;;;;;;4967537;28;20200;-78
2021/12/02 08:18:24;;;;;;;2.15;1.20;;;7.30;99.90;;;;;;4967456;28;20194;-79
2021/12/02 08:20:58;;;;;;;3.63;1.30;;;7.30;99.90;;;;;;4957926;28;20653;-78
2021/12/02 08:23:29;;;;;;;4.25;1.48;;;7.20;99.90;;;;;;4952884;29;20172;-78
2021/12/02 08:25:59;;;;;;;3.58;1.50;;;7.20;99.90;;;;;;4968136;28;20188;-78
2021/12/02 08:28:25;;;;;;;4.25;1.60;;;7.20;99.90;;;;;;4952339;28;20184;-78
2021/12/02 08:30:51;;;;;;;8.20;1.88;;;7.20;99.90;;;;;;4938871;29;20223;-77
2021/12/02 08:33:18;;;;;;;5.40;2.40;;;7.20;99.90;;;;;;4952725;28;20173;-77
2021/12/02 08:35:44;;;;;;;2.80;1.85;;;7.20;99.90;;;;;;4951702;29;20176;-76
2021/12/02 08:38:12;;;;;;;2.57;1.70;;;7.20;99.90;;;;;;4953304;28;20283;-77
2021/12/02 08:40:40;;;;;;;2.58;2.00;;;7.20;99.90;;;;;;4962838;28;20675;-78
2021/12/02 08:43:08;;;;;;;2.15;1.67;;;7.20;99.90;;;;;;4986689;28;20250;-77
2021/12/02 08:45:35;;;;;;;3.05;2.00;;;7.30;99.90;;;;;;4971829;28;20195;-77
2021/12/02 08:48:03;;;;;;;2.60;1.88;;;7.30;99.90;;;;;;4971595;28;20215;-81
2021/12/02 08:50:29;;;;;;;2.67;1.77;;;7.30;99.90;;;;;;4972918;28;20183;-81
2021/12/02 08:52:55;;;;;;;4.85;2.05;;;7.30;99.90;;;;;;4939149;28;20267;-81
2021/12/02 08:55:23;;;;;;;2.20;1.85;;;7.30;99.90;;;;;;4972768;28;20171;-80
2021/12/02 08:57:50;;;;;;;4.55;2.15;;;7.40;99.90;;;;;;4970439;28;20255;-77
2021/12/02 09:00:19;;;;;;;4.50;2.45;;;7.40;99.90;;;;;;4969924;28;20203;-77
2021/12/02 09:02:46;;;;;;;5.97;2.35;;;7.40;99.90;;;;;;4972889;28;20228;-77
2021/12/02 09:05:11;;;;;;;4.13;2.25;;;7.40;99.90;;;;;;4975485;28;20172;-75
2021/12/02 09:07:37;;;;;;;5.73;2.10;;;7.40;99.90;;;;;;4975139;28;20277;-75
2021/12/02 09:10:05;;;;;;;4.20;2.50;;;7.40;99.90;;;;;;4975390;28;20536;-76
2021/12/02 09:12:31;;;;;;;5.75;3.88;;;7.40;99.90;;;;;;4974825;28;20725;-76
2021/12/02 09:14:57;;;;;;;3.83;3.42;;;7.50;99.90;;;;;;4975592;28;20259;-78
2021/12/02 09:17:24;;;;;;;7.37;3.53;;;7.50;99.90;;;;;;4974745;28;20291;-77
2021/12/02 09:19:50;;;;;;;4.60;4.15;;;7.50;99.90;;;;;;4975315;28;20172;-77
2021/12/02 09:22:16;;;;;;;4.30;3.90;;;7.50;99.90;;;;;;4975118;28;20178;-77
2021/12/02 09:24:41;;;;;;;5.63;3.93;;;7.50;99.90;;;;;;4975172;28;20538;-77
2021/12/02 09:27:08;;;;;;;2.80;2.60;;;7.50;99.90;;;;;;4973667;28;20606;-77
2021/12/02 09:29:33;;;;;;;3.55;3.25;;;7.50;99.90;;;;;;4989409;28;20180;-78
2021/12/02 09:31:59;;;;;;;6.30;3.63;;;7.60;99.90;;;;;;4974922;28;20226;-77
2021/12/02 09:34:26;;;;;;;4.15;3.10;;;7.60;99.90;;;;;;4974613;28;20965;-77
2021/12/02 09:36:55;;;;;;;3.20;2.90;;;7.70;99.90;;;;;;4975036;28;20310;-77
2021/12/02 09:39:21;;;;;;;3.05;2.83;;;7.80;99.90;;;;;;4973066;28;20172;-77
2021/12/02 09:41:47;;;;;;;2.90;2.60;;;7.80;99.90;;;;;;4974525;28;20569;-77
2021/12/02 09:44:15;;;;;;;2.80;2.55;;;7.90;99.90;;;;;;4973169;28;20179;-76
2021/12/02 09:46:42;;;;;;;2.45;1.95;;;8.00;99.90;;;;;;4971190;28;20175;-77
2021/12/02 09:49:10;;;;;;;7.47;2.40;;;8.10;99.90;;;;;;4956929;28;20176;-76
2021/12/02 09:52:26;;;;;;;2.55;1.98;;;8.10;99.90;;;;;;4961153;28;20171;-76
2021/12/02 09:56:59;;;;;;;3.17;2.13;;;8.10;99.90;;;;;;4958496;28;20211;-77
2021/12/02 09:59:27;;;;;;;3.22;2.50;;;8.10;99.90;;;;;;4958581;28;20184;-77
2021/12/02 10:02:07;;;;;;;2.97;2.30;;;8.10;99.90;;;;;;4965794;28;20176;-77
2021/12/02 10:04:40;;;;;;;6.55;3.33;;;8.10;99.90;;;;;;4962544;28;20187;-77
2021/12/02 10:07:16;;;;;;;3.45;2.20;;;8.10;99.90;;;;;;4960062;28;20238;-77
2021/12/02 10:09:53;;;;;;;4.07;2.55;;;8.00;99.90;;;;;;4953652;29;20194;-77
2021/12/02 10:12:22;;;;;;;3.85;1.85;;;8.00;99.90;;;;;;4954290;28;20172;-77
2021/12/02 10:14:53;;;;;;;4.57;3.78;;;8.00;99.90;;;;;;4953993;28;20475;-77
2021/12/02 10:17:38;;;;;;;3.92;3.53;;;8.00;99.90;;;;;;4953939;28;20196;-77
2021/12/02 10:23:25;;;;;;;6.05;4.13;;;7.90;99.90;;;;;;4977189;28;20228;-77
2021/12/02 10:25:58;;;;;;;7.00;4.88;;;7.90;99.90;;;;;;4973924;28;20644;-77
2021/12/02 10:28:26;;;;;;;5.55;3.47;;;8.00;99.90;;;;;;4967503;28;20263;-77
2021/12/02 10:30:56;;;;;;;3.38;2.95;;;8.00;99.90;;;;;;4953408;29;20271;-77
2021/12/02 10:33:52;;;;;;;3.70;3.00;;;8.10;99.90;;;;;;4953911;29;20266;-77
2021/12/02 10:36:28;;;;;;;4.82;3.63;;;8.10;99.90;;;;;;4952890;28;20230;-77
2021/12/02 10:39:17;;;;;;;6.78;4.00;;;8.20;99.90;;;;;;4954468;28;20625;-77
2021/12/02 10:41:46;;;;;;;6.07;4.20;;;8.20;99.90;;;;;;4954977;28;20782;-76
2021/12/02 10:44:19;;;;;;;4.00;2.47;;;8.30;99.90;;;;;;4954371;28;20204;-76
2021/12/02 10:46:57;;;;;;;3.80;2.97;;;8.40;99.90;;;;;;4954929;28;20196;-77
2021/12/02 10:49:25;;;;;;;6.00;3.63;;;8.50;99.90;;;;;;4955398;29;20596;-76
2021/12/02 10:51:54;;;;;;;6.20;3.30;;;8.60;99.90;;;;;;4954688;29;20543;-77
2021/12/02 10:54:29;;;;;;;5.07;2.58;;;8.80;99.90;;;;;;4954872;28;20183;-78
2021/12/02 10:56:59;;;;;;;7.57;2.38;;;8.80;99.90;;;;;;4959762;28;20296;-77
2021/12/02 10:59:35;;;;;;;4.10;3.03;;;8.90;99.90;;;;;;4980430;28;20314;-78
2021/12/02 11:02:17;;;;;;;3.20;2.45;;;8.90;99.90;;;;;;4974726;28;20171;-77
2021/12/02 11:04:46;;;;;;;7.35;3.30;;;9.00;99.90;;;;;;4981613;28;20262;-77
2021/12/02 11:07:20;;;;;;;4.57;2.72;;;9.00;99.90;;;;;;4980607;28;20582;-76
2021/12/02 11:09:48;;;;;;;6.28;2.70;;;9.10;99.90;;;;;;4987752;28;20215;-76
2021/12/02 11:12:18;;;;;;;3.15;2.30;;;9.20;99.90;;;;;;4981044;28;20239;-78
2021/12/02 11:14:57;;;;;;;3.45;3.15;;;9.30;99.90;;;;;;4978376;28;20175;-76
2021/12/02 11:17:29;;;;;;;3.35;2.20;;;9.40;99.90;;;;;;4999953;28;20214;-77
2021/12/02 11:19:56;;;;;;;2.28;1.23;;;9.50;99.90;;;;;;4982077;28;20206;-77
2021/12/02 11:22:25;;;;;;;3.80;1.52;;;9.50;99.90;;;;;;4990055;28;20184;-76
2021/12/02 11:24:51;;;;;;;4.60;1.52;;;9.40;99.90;;;;;;4984666;28;20172;-78
2021/12/02 11:27:25;;;;;;;5.93;1.40;;;9.40;99.90;;;;;;4981537;28;20195;-77
2021/12/02 11:30:07;;;;;;;3.55;1.00;;;9.40;99.90;;;;;;4984597;28;20176;-78
2021/12/02 11:32:46;;;;;;;4.70;1.10;;;9.30;99.90;;;;;;4983726;28;20183;-76
2021/12/02 11:35:19;;;;;;;2.85;1.23;;;9.20;99.90;;;;;;4981622;28;20182;-76
2021/12/02 11:37:49;;;;;;;2.83;1.65;;;9.20;99.90;;;;;;4982644;28;20214;-77
2021/12/02 11:40:28;;;;;;;4.35;1.00;;;9.10;99.90;;;;;;4983410;28;20532;-77
2021/12/02 11:42:55;;;;;;;5.45;1.40;;;9.00;99.90;;;;;;4966012;28;20163;-78
2021/12/02 11:45:23;;;;;;;2.65;1.08;;;9.00;99.90;;;;;;4983644;28;20579;-77
2021/12/02 11:47:50;;;;;;;2.35;0.90;;;8.90;99.90;;;;;;4981791;28;20277;-77
2021/12/02 11:50:18;;;;;;;2.85;1.13;;;8.80;99.90;;;;;;4999582;28;20179;-78
2021/12/02 11:52:45;;;;;;;2.28;1.05;;;8.70;99.90;;;;;;4980701;28;20259;-78
2021/12/02 11:55:15;;;;;;;4.30;2.00;;;8.70;99.90;;;;;;4974062;28;20215;-78
2021/12/02 11:57:42;;;;;;;7.82;3.90;;;8.60;99.90;;;;;;4972271;28;20206;-78
2021/12/02 12:00:11;;;;;;;3.78;2.97;;;8.60;99.90;;;;;;4973536;28;20164;-73
2021/12/02 12:02:56;;;;;;;3.83;2.55;;;8.60;99.90;;;;;;4972916;28;20172;-73
2021/12/02 12:05:29;;;;;;;7.32;4.03;;;8.60;99.90;;;;;;4973361;28;20179;-74
2021/12/02 12:07:55;;;;;;;5.25;3.55;;;8.60;99.90;;;;;;4971263;28;20250;-73
2021/12/02 12:10:32;;;;;;;9.68;2.90;;;8.70;99.90;;;;;;4973015;28;20187;-74
2021/12/02 12:13:11;;;;;;;3.05;2.25;;;8.70;99.90;;;;;;4971332;28;20238;-73
2021/12/02 12:15:52;;;;;;;3.08;2.75;;;8.70;99.90;;;;;;4972950;28;20172;-73
2021/12/02 12:18:39;;;;;;;5.03;2.70;;;8.70;99.90;;;;;;4971363;28;20762;-73
2021/12/02 12:21:12;;;;;;;3.77;2.10;;;8.50;99.90;;;;;;4971151;28;20777;-74
2021/12/02 12:24:00;;;;;;;3.03;2.40;;;8.50;99.90;;;;;;4955106;28;20579;-73
2021/12/02 12:26:36;;;;;;;10.40;2.35;;;8.50;99.90;;;;;;4972553;28;20183;-73
2021/12/02 12:29:05;;;;;;;6.30;2.42;;;8.60;99.90;;;;;;4972430;28;20251;-73
2021/12/02 12:31:42;;;;;;;4.65;2.75;;;8.60;99.90;;;;;;4987569;28;20172;-74
2021/12/02 12:37:23;;;;;;;4.70;2.13;;;8.30;99.90;;;;;;4972431;28;20212;-73
2021/12/02 12:40:07;;;;;;;4.22;2.63;;;8.40;99.90;;;;;;4975655;28;20251;-73
2021/12/02 12:42:34;;;;;;;3.25;1.48;;;8.40;99.90;;;;;;4975974;28;20182;-73
2021/12/02 12:45:01;;;;;;;4.10;1.50;;;8.40;99.90;;;;;;4975830;28;20183;-73
2021/12/02 12:47:48;;;;;;;2.60;1.55;;;8.40;99.90;;;;;;4974480;28;20222;-73
2021/12/02 12:50:24;;;;;;;4.70;1.48;;;8.40;99.90;;;;;;4990691;28;20526;-73
2021/12/02 12:53:04;;;;;;;4.18;1.55;;;8.40;99.90;;;;;;4974240;28;20176;-74
2021/12/02 12:55:40;;;;;;;2.58;1.63;;;8.40;99.90;;;;;;4983856;28;20653;-74
2021/12/02 12:58:31;;;;;;;3.00;1.60;;;8.40;99.90;;;;;;4956135;28;20212;-73
2021/12/02 13:00:58;;;;;;;2.83;1.50;;;8.30;99.90;;;;;;4955117;28;20192;-73
2021/12/02 13:05:57;;;;;;;4.65;1.60;;;8.20;99.90;;;;;;4954904;29;20204;-74
2021/12/02 13:08:26;;;;;;;2.20;1.95;;;8.20;99.90;;;;;;4954226;28;20200;-74
2021/12/02 13:10:58;;;;;;;2.40;1.98;;;8.10;99.90;;;;;;4971135;28;20169;-73
2021/12/02 13:13:34;;;;;;;5.50;2.90;;;8.10;99.90;;;;;;4954851;29;20187;-73
2021/12/02 13:16:19;;;;;;;3.10;2.08;;;8.00;99.90;;;;;;4956346;28;20160;-79
2021/12/02 13:18:59;;;;;;;4.68;2.65;;;8.00;99.90;;;;;;4954512;28;20196;-78
2021/12/02 13:21:28;;;;;;;2.60;2.28;;;8.00;99.90;;;;;;4938950;29;20177;-72
2021/12/02 13:23:55;;;;;;;5.33;2.70;;;8.00;99.90;;;;;;4953881;29;20766;-72
2021/12/02 13:26:23;;;;;;;4.50;2.45;;;8.00;99.90;;;;;;4956248;28;20580;-72
2021/12/02 13:28:52;;;;;;;2.10;1.90;;;8.00;99.90;;;;;;4960606;28;20179;-76
2021/12/02 13:31:19;;;;;;;3.90;2.10;;;8.00;99.90;;;;;;4976148;28;20523;-76
2021/12/02 13:33:58;;;;;;;2.30;1.55;;;8.00;99.90;;;;;;4980513;28;20187;-77
2021/12/02 13:36:33;;;;;;;2.80;1.80;;;8.00;99.90;;;;;;4959598;28;20203;-72